Time;durP1;ratioP1;P1;durP2;ratioP2;P2;SDS_P1;SDS_P2;PMS_P1;PMS_P2;Temp;Humidity;BMP_temperature;BMP_pressure;BME280_temperature;BME280_humidity;BME280_pressure;Samples;Min_cycle;Max_cycle;Signal;HPM_P1;HPM_P2
2022/04/30 00:08:38;;;;;;;26.13;14.50;;;;;;;12.88;89.78;101010.25;21160723;28;20040;-71
2022/04/30 00:18:40;;;;;;;24.98;14.82;;;;;;;12.69;89.99;101007.03;21160208;28;20051;-71
2022/04/30 00:28:41;;;;;;;25.73;14.65;;;;;;;12.69;90.10;101020.16;21160197;28;20105;-71
2022/04/30 00:38:43;;;;;;;28.88;15.43;;;;;;;12.69;89.90;101005.25;21158223;28;20050;-73
2022/04/30 00:48:45;;;;;;;30.40;15.75;;;;;;;12.22;93.10;100993.69;21157729;28;20288;-73
2022/04/30 00:58:48;;;;;;;33.80;17.70;;;;;;;12.18;93.46;100985.88;21156956;28;20047;-72
2022/04/30 01:08:49;;;;;;;32.28;17.38;;;;;;;12.18;93.37;100988.50;21155477;28;20039;-73
2022/04/30 01:18:51;;;;;;;38.30;19.33;;;;;;;12.12;93.67;100997.31;21156052;28;20187;-73
2022/04/30 01:28:54;;;;;;;39.42;19.35;;;;;;;12.13;93.45;100998.19;21152378;28;20052;-73
2022/04/30 01:38:59;;;;;;;33.45;18.63;;;;;;;12.05;93.95;101012.25;21153580;28;20065;-71
2022/04/30 01:49:02;;;;;;;36.33;20.42;;;;;;;11.91;95.90;101002.81;21153336;28;20059;-72
2022/04/30 01:59:04;;;;;;;35.55;19.98;;;;;;;11.82;95.90;101004.63;21152847;28;20093;-72
2022/04/30 02:09:05;;;;;;;38.70;20.55;;;;;;;11.76;95.89;101003.81;21151171;28;20048;-72
2022/04/30 02:19:08;;;;;;;33.85;20.30;;;;;;;11.70;97.70;100993.41;21151568;28;20129;-72
2022/04/30 02:29:10;;;;;;;38.75;21.75;;;;;;;11.41;98.33;100999.81;21152549;28;20047;-72
2022/04/30 02:39:12;;;;;;;36.63;20.75;;;;;;;11.26;99.47;100997.34;21148901;28;20392;-73
2022/04/30 02:49:13;;;;;;;41.60;22.48;;;;;;;11.00;100.00;101001.03;21150645;28;20449;-74
2022/04/30 03:09:35;;;;;;;48.20;24.17;;;;;;;10.49;100.00;100991.75;21163960;28;20047;-72
2022/04/30 03:29:57;;;;;;;47.03;27.90;;;;;;;10.09;100.00;100993.69;21164408;28;20048;-71
2022/04/30 03:39:58;;;;;;;52.47;29.30;;;;;;;10.05;100.00;100984.97;21162698;28;20054;-71
2022/04/30 03:49:59;;;;;;;60.97;31.42;;;;;;;9.97;100.00;100987.63;21162345;28;20047;-72
2022/04/30 04:00:01;;;;;;;57.80;32.22;;;;;;;9.97;100.00;100987.63;21162224;28;20047;-72
2022/04/30 04:10:03;;;;;;;53.60;29.70;;;;;;;9.93;100.00;101001.59;21160713;28;20104;-72
2022/04/30 04:20:10;;;;;;;53.70;30.65;;;;;;;9.90;100.00;101001.59;21160674;28;20105;-72
2022/04/30 04:30:11;;;;;;;62.00;33.60;;;;;;;9.88;100.00;100999.88;21157572;28;20066;-71
2022/04/30 04:40:15;;;;;;;54.80;32.65;;;;;;;9.85;100.00;101000.75;21155882;28;20058;-73
2022/04/30 04:50:17;;;;;;;69.63;37.58;;;;;;;9.91;100.00;101005.94;21157507;28;20100;-73
2022/04/30 05:00:19;;;;;;;68.47;35.03;;;;;;;9.90;100.00;101011.19;21153133;28;20051;-72
2022/04/30 05:10:20;;;;;;;62.33;34.20;;;;;;;10.00;100.00;101020.75;21155379;28;20407;-71
2022/04/30 05:20:22;;;;;;;56.30;33.10;;;;;;;9.91;100.00;101031.25;21154698;28;20105;-72
2022/04/30 05:30:42;;;;;;;60.65;34.67;;;;;;;9.99;100.00;101032.97;21150107;28;20653;-71
2022/04/30 05:40:44;;;;;;;57.20;31.92;;;;;;;9.87;100.00;101043.47;21153767;28;20097;-72
2022/04/30 05:50:45;;;;;;;62.03;32.88;;;;;;;9.96;100.00;101043.44;21153521;28;20104;-73
2022/04/30 06:00:47;;;;;;;57.40;33.22;;;;;;;10.05;100.00;101054.75;21152105;28;20032;-73
2022/04/30 06:10:49;;;;;;;57.60;31.65;;;;;;;10.05;100.00;101059.97;21149008;28;20486;-72
2022/04/30 06:20:51;;;;;;;53.85;32.67;;;;;;;10.16;100.00;101068.69;21151430;28;20043;-73
2022/04/30 06:30:52;;;;;;;52.13;29.17;;;;;;;9.96;100.00;101072.19;21154147;28;20047;-73
2022/04/30 06:40:53;;;;;;;53.20;30.48;;;;;;;10.03;100.00;101076.56;21168472;28;20052;-73
2022/04/30 06:50:55;;;;;;;49.17;28.70;;;;;;;10.02;100.00;101085.28;21166905;28;20048;-71
2022/04/30 07:11:00;;;;;;;50.78;29.35;;;;;;;10.07;100.00;101100.97;21114631;28;20477;-72
2022/04/30 07:21:01;;;;;;;40.40;26.55;;;;;;;9.86;100.00;101107.09;21108158;28;20503;-75
2022/04/30 07:31:04;;;;;;;44.35;27.35;;;;;;;10.07;100.00;101113.19;21104979;28;20101;-73
2022/04/30 07:41:06;;;;;;;39.03;24.92;;;;;;;10.12;100.00;101106.19;21132638;28;20047;-72
2022/04/30 07:51:14;;;;;;;38.17;25.27;;;;;;;10.28;100.00;101118.38;21150313;28;20047;-75
2022/04/30 08:01:16;;;;;;;35.15;23.08;;;;;;;10.35;100.00;101125.38;21152665;28;20059;-74
2022/04/30 08:11:17;;;;;;;36.95;21.73;;;;;;;10.39;100.00;101131.44;21152074;28;20097;-74
2022/04/30 08:21:19;;;;;;;38.97;22.50;;;;;;;10.27;100.00;101134.97;21152173;28;20051;-74
2022/04/30 08:31:20;;;;;;;35.15;22.88;;;;;;;10.38;100.00;101125.34;21149292;28;20048;-74
2022/04/30 08:41:22;;;;;;;36.75;23.08;;;;;;;10.47;100.00;101135.78;21149176;28;20051;-75
2022/04/30 08:51:24;;;;;;;37.50;24.05;;;;;;;10.45;100.00;101136.69;21149255;28;20047;-74
2022/04/30 09:01:25;;;;;;;36.88;23.42;;;;;;;10.57;100.00;101140.97;21147861;27;20051;-74
2022/04/30 09:11:27;;;;;;;34.70;22.83;;;;;;;10.58;100.00;101127.00;21148180;28;20460;-73
2022/04/30 09:21:29;;;;;;;39.15;23.77;;;;;;;10.48;100.00;101134.91;21147355;28;20048;-74
2022/04/30 09:31:31;;;;;;;36.83;23.13;;;;;;;10.43;100.00;101139.28;21146079;28;20459;-74
2022/04/30 09:41:33;;;;;;;34.67;23.05;;;;;;;10.67;100.00;101138.31;21145575;28;20055;-73
2022/04/30 10:02:09;;;;;;;36.05;21.83;;;;;;;10.86;100.00;101127.75;21087044;28;20048;-73
2022/04/30 10:12:21;;;;;;;36.45;23.55;;;;;;;10.76;100.00;101129.56;21139323;28;20482;-73
2022/04/30 10:22:22;;;;;;;32.30;20.73;;;;;;;10.82;100.00;101136.50;21139607;28;20044;-72
2022/04/30 10:32:34;;;;;;;33.75;20.38;;;;;;;10.76;100.00;101126.94;21142687;28;20051;-73
2022/04/30 10:42:42;;;;;;;31.02;19.17;;;;;;;10.88;100.00;101126.00;21138832;28;20055;-72
2022/04/30 10:52:48;;;;;;;25.13;16.52;;;;;;;10.73;100.00;101121.69;21138582;28;20055;-72
2022/04/30 11:02:51;;;;;;;24.13;15.50;;;;;;;10.84;100.00;101125.16;21147574;28;20047;-72
2022/04/30 11:13:04;;;;;;;25.38;16.00;;;;;;;10.95;100.00;101118.09;21160418;28;20083;-70
2022/04/30 11:23:05;;;;;;;25.10;16.70;;;;;;;11.62;100.00;101102.75;21164876;28;20047;-70
2022/04/30 11:33:09;;;;;;;29.65;17.92;;;;;;;11.77;99.81;101095.63;21170181;28;20039;-70
2022/04/30 11:43:11;;;;;;;27.43;16.33;;;;;;;11.97;98.43;101103.31;21169401;28;20076;-69
2022/04/30 11:53:17;;;;;;;26.65;17.48;;;;;;;11.93;95.75;101112.13;21167237;28;20109;-70
2022/04/30 12:03:26;;;;;;;25.67;17.25;;;;;;;12.04;95.97;101098.91;21163427;28;20496;-70
2022/04/30 12:13:29;;;;;;;25.23;17.15;;;;;;;11.90;96.41;101093.78;21171209;28;20046;-69
2022/04/30 12:33:51;;;;;;;26.23;17.23;;;;;;;12.01;94.31;101085.78;21127319;28;20047;-73
2022/04/30 12:44:25;;;;;;;25.55;15.48;;;;;;;12.07;92.40;101076.13;21175427;28;20118;-74
2022/04/30 12:54:51;;;;;;;24.48;14.52;;;;;;;11.88;94.83;101073.69;21078395;28;20048;-74
2022/04/30 13:04:53;;;;;;;22.02;14.80;;;;;;;12.47;95.23;101057.25;21067972;28;20493;-77
2022/04/30 13:14:55;;;;;;;22.42;13.80;;;;;;;12.60;92.24;101052.72;21064394;28;20050;-77
2022/04/30 13:24:57;;;;;;;22.20;13.10;;;;;;;12.76;89.46;101034.97;21063415;28;20050;-77
2022/04/30 13:34:58;;;;;;;22.00;13.50;;;;;;;12.72;91.56;101046.41;21090299;23;20048;-77
2022/04/30 13:45:00;;;;;;;18.98;11.68;;;;;;;12.98;88.19;101041.66;21142026;28;20087;-77
2022/04/30 13:55:07;;;;;;;17.55;11.43;;;;;;;12.93;85.95;101030.31;21144828;28;20074;-77
2022/04/30 14:05:09;;;;;;;19.38;12.90;;;;;;;13.17;84.59;101033.44;21144460;28;20122;-77
2022/04/30 14:15:11;;;;;;;19.90;13.23;;;;;;;12.47;88.68;101040.63;21144991;28;20066;-77
2022/04/30 14:25:14;;;;;;;18.25;11.85;;;;;;;12.32;90.67;101020.69;21144338;28;20054;-78
2022/04/30 14:35:16;;;;;;;19.70;12.63;;;;;;;12.75;89.61;101035.84;21142916;28;20050;-77
2022/04/30 14:45:18;;;;;;;19.67;11.45;;;;;;;12.71;88.39;101031.53;21121026;28;20134;-76
2022/04/30 14:55:20;;;;;;;19.45;12.85;;;;;;;12.14;89.89;101036.66;21152619;28;20043;-74
2022/04/30 15:05:21;;;;;;;19.48;13.25;;;;;;;12.63;87.76;101025.50;21163912;28;20161;-73
2022/04/30 15:15:23;;;;;;;20.88;12.63;;;;;;;12.80;86.46;101010.38;21159303;28;20047;-73
2022/04/30 15:25:25;;;;;;;21.42;12.73;;;;;;;12.67;86.88;100999.16;21154872;28;20047;-74
2022/04/30 15:35:28;;;;;;;22.33;14.07;;;;;;;12.72;83.55;101007.84;21154198;28;20047;-73
2022/04/30 15:45:34;;;;;;;22.88;14.02;;;;;;;12.23;88.74;101018.16;21155801;28;20058;-73
2022/04/30 15:55:36;;;;;;;22.35;13.98;;;;;;;12.01;89.74;101005.28;21136460;28;20054;-73
2022/04/30 16:05:38;;;;;;;25.15;15.35;;;;;;;11.60;93.03;101010.97;21153298;28;20134;-73
2022/04/30 16:15:41;;;;;;;23.33;14.95;;;;;;;11.66;91.66;101023.16;21157334;28;20047;-73
2022/04/30 16:25:42;;;;;;;25.85;15.95;;;;;;;11.45;92.15;101014.63;21156033;28;20507;-73
2022/04/30 16:35:44;;;;;;;27.42;16.67;;;;;;;11.25;94.40;101022.66;21154797;28;20040;-73
2022/04/30 16:45:48;;;;;;;24.70;15.57;;;;;;;11.39;93.92;101014.66;21152989;28;20419;-73
2022/04/30 17:06:11;;;;;;;19.67;12.50;;;;;;;11.09;88.37;101028.03;21150595;28;20043;-73
2022/04/30 17:16:13;;;;;;;23.33;13.15;;;;;;;11.25;87.05;101019.16;21151492;28;20047;-73
2022/04/30 17:26:21;;;;;;;23.00;12.77;;;;;;;11.26;85.41;101019.16;21147652;28;20055;-73
2022/04/30 17:46:44;;;;;;;19.38;11.82;;;;;;;11.16;86.08;101029.72;21154482;28;20142;-73
2022/04/30 17:56:46;;;;;;;20.20;12.82;;;;;;;10.97;87.41;101034.22;21156874;28;20048;-73
2022/04/30 18:06:47;;;;;;;22.02;12.55;;;;;;;11.14;87.04;101023.63;21148607;28;20073;-73
2022/04/30 18:16:49;;;;;;;17.95;12.13;;;;;;;10.99;87.62;101028.09;21148832;28;20050;-73
2022/04/30 18:26:50;;;;;;;19.58;12.68;;;;;;;10.90;88.79;101020.31;21147855;28;20079;-73
2022/04/30 18:37:10;;;;;;;21.08;12.20;;;;;;;10.79;88.43;101038.72;21148496;28;20040;-73
2022/04/30 18:47:15;;;;;;;18.65;11.93;;;;;;;10.84;89.13;101045.69;21146361;28;20054;-72
2022/04/30 19:07:38;;;;;;;17.50;11.07;;;;;;;10.66;89.21;101042.28;21134682;28;19933;-72
2022/04/30 19:17:40;;;;;;;19.17;10.38;;;;;;;10.82;89.01;101039.56;21141744;28;20133;-72
2022/04/30 19:27:42;;;;;;;17.02;10.45;;;;;;;10.62;91.11;101044.94;21139863;28;20059;-72
2022/04/30 19:37:46;;;;;;;18.55;10.68;;;;;;;10.59;90.90;101047.56;21140511;28;20056;-72
2022/04/30 19:47:48;;;;;;;17.33;10.82;;;;;;;10.66;91.52;101058.00;21153762;28;20108;-72
2022/04/30 19:57:50;;;;;;;17.80;10.38;;;;;;;10.61;92.02;101053.69;21152927;28;20048;-71
2022/04/30 20:07:52;;;;;;;16.42;10.32;;;;;;;10.62;91.47;101050.19;21150706;28;20063;-71
2022/04/30 20:17:54;;;;;;;16.70;10.13;;;;;;;10.55;91.23;101044.13;21152744;28;20060;-72
2022/04/30 20:27:55;;;;;;;17.45;11.05;;;;;;;10.37;92.23;101050.31;21151203;28;20125;-72
2022/04/30 20:37:58;;;;;;;21.65;11.40;;;;;;;10.45;90.36;101064.25;21151035;28;20043;-72
2022/04/30 20:48:00;;;;;;;21.00;12.30;;;;;;;10.48;90.71;101053.72;21151179;28;20472;-72
2022/04/30 20:58:01;;;;;;;22.95;11.20;;;;;;;10.42;93.05;101045.91;21145172;28;20470;-72
2022/04/30 21:08:03;;;;;;;19.05;10.88;;;;;;;10.35;93.86;101040.69;21147476;28;20054;-72
2022/04/30 21:18:05;;;;;;;20.52;11.90;;;;;;;10.36;94.45;101048.56;21147040;28;20074;-71
2022/04/30 21:28:09;;;;;;;19.17;11.32;;;;;;;10.34;95.10;101045.06;21146647;28;20112;-71
2022/04/30 21:38:12;;;;;;;22.10;11.75;;;;;;;10.27;95.46;101043.38;21144792;28;20047;-71
2022/04/30 21:48:13;;;;;;;23.33;12.70;;;;;;;10.24;95.20;101038.13;21144688;28;20040;-71
2022/04/30 22:08:37;;;;;;;24.73;14.52;;;;;;;10.19;97.33;101030.28;21145444;28;20082;-72
2022/04/30 22:18:39;;;;;;;27.08;16.38;;;;;;;10.19;98.42;101029.41;21150037;28;20044;-71
2022/04/30 22:28:42;;;;;;;21.75;14.13;;;;;;;10.19;98.34;101040.75;21150848;28;20415;-72
2022/04/30 22:38:44;;;;;;;30.33;16.27;;;;;;;10.15;98.64;101038.13;21149509;28;20135;-72
2022/04/30 22:48:45;;;;;;;22.08;14.73;;;;;;;10.15;98.97;101038.13;21149995;28;20108;-72
2022/04/30 22:58:47;;;;;;;27.73;15.70;;;;;;;10.20;97.89;101032.00;21149555;28;20044;-72
2022/04/30 23:08:50;;;;;;;26.60;15.77;;;;;;;10.20;98.64;101031.13;21148504;28;20047;-72
2022/04/30 23:18:58;;;;;;;25.05;15.10;;;;;;;10.02;98.49;101030.34;21163110;28;20062;-71
2022/04/30 23:29:07;;;;;;;24.67;16.35;;;;;;;10.07;97.91;101024.22;21168751;28;20074;-71
2022/04/30 23:39:09;;;;;;;26.67;15.82;;;;;;;9.97;98.16;101019.03;21162956;28;20396;-71
2022/04/30 23:49:11;;;;;;;28.38;17.55;;;;;;;10.01;99.33;101010.31;21163127;28;20047;-71
2022/04/30 23:59:13;;;;;;;28.73;15.43;;;;;;;10.01;97.77;100999.84;21161933;28;20274;-71
